Aviation Digital Data Service (ADDS)

Output produced by METARs form (1016 UTC 19 January 2019)
found at http://www.aviationweather.gov/metar/data/
 
OIAA 191000Z 28008KT CAVOK 13/M04 Q1022
TAF OIAA 190530Z 1906/2012 30006KT 6000 NSC 
     TEMPO 1910/1918 30016KT 
     TEMPO 2008/2012 30016KT
       
OIBA 191000Z 31021KT 3500 HZ FEW025 SCT100 21/14 Q1015
OIAG 191000Z 32014KT CAVOK 13/01 Q1022
OIAW 191000Z 31006KT CAVOK 13/00 Q1021 NOSIG
TAF OIAW 190530Z 1906/2012 30006KT 7000 NSC 
     TEMPO 1909/1914 30016KT 
     TEMPO 2009/2012 30016KT
       
OIHR 191000Z 27010KT 9999 FEW035 SCT190 M00/M07 Q1018
OITL 191000Z 21008KT CAVOK M01/M07 Q1016
OIKB 191000Z 23014KT 4000 SA SCT100 22/11 Q1013 A2994 NOSIG
TAF OIKB 190530Z 1906/2012 24008KT 5000 HZ NSC 
     BECMG 1906/1908 24018KT 
     TEMPO 1909/1918 240018G28KT 4000 SA 
     BECMG 1919/1921 30008KT 6000 NSC
       
OIBL 191000Z 28016KT 7000 FEW040 SCT100 22/05 Q1014
OIMB 191000Z 26016KT 9999 FEW035 13/M17 Q1009
OIMN 191000Z 26008KT 4000 -SN FEW025CB SCT035 BKN080 M00/M03 Q1015
OIBB 191000Z 32017KT 9999 FEW025 15/M01 Q1020 A3014
OIKQ 191000Z 26019KT 3000 SA NSC 21/13 Q1014
OIFM 191000Z 32012KT 9999 FEW040 02/M06 Q1016 A3001
TAF OIFM 190530Z 1906/2012 30008KT 4000 BR SCT035 BKN100 
     TEMPO 1906/1909 30020KT 1000 SN SCT030 OVC080 
     BECMG 1909/1911 6000 FEW035
       
OISF 191000Z 18004KT CAVOK 12/M06 Q1013
OIAH 191000Z 00000KT 7000 FEW040 09/M01 Q1019
OIIK 191000Z 01006KT 9999 FEW040 BKN180 04/M04 Q1015
OING 191000Z 08004KT 9999 FEW025 SCT030 OVC090 08/02 Q1021
OIHH 191000Z 28004KT 9999 FEW040 M01/M08 Q1016
OICI 191000Z 28004KT CAVOK 05/M06 Q1021 A3015
TAF OICI 190530Z 1906/2012 13008KT 7000 NSC
       
OIZI 191000Z 25006KT 8000 NSC 20/06 Q1014
OIZJ 191000Z 28010KT 8000 FEW025 BKN080 23/14 Q1013
OINE 191000Z 21008KT 7000 -RA BKN020 OVC080 06/03 Q1019
OIKK 191000Z 25024G34KT 9999 FEW045 13/M26 Q1011 A2986
TAF OIKK 190530Z 1906/2012 24010KT 8000 NSC 
     TEMPO 1908/1914 24016G26KT 
     BECMG 1915/1917 30008KT 8000 NSC
       
OIBQ 191000Z 30014KT CAVOK 14/02 Q1021
OICK 191000Z 11002KT 9999 FEW040 05/M05 Q1020
OIBK 191000Z 29025KT 3000 SA NSC 19/09 Q1015
TAF OIBK 190530Z 1906/2012 31020KT 6000 NSC 
     TEMPO 1906/1918 31020G30KT 3000 SA
       
OISR 191000Z 28012KT CAVOK 17/M03 Q1017
OISL 191000Z 23006KT CAVOK 16/M02 Q1014
TAF OISL 190530Z 1906/2012 28008KT 8000 NSC
       
OIBV 191000Z 28023KT 2500 SA NSC 19/05 Q1015
OIAM 191000Z 33008KT CAVOK 12/M02 Q1022
OIMM 191000Z 27010KT 9999 SCT035 BKN200 05/M07 Q1012 A2991
TAF OIMM 190530Z 1906/2012 26008KT 7000 FEW035 SCT100 
     TEMPO 1908/1915 30016KT FEW035CB SCT040 BKN100
       
OIII 191000Z 16006KT 9999 FEW040 SCT100 BKN200 04/M07 Q1015 A3000 NOSIG
TAF OIII 190530Z 1906/2012 20008KT 8000 FEW040
       
OINN 191000Z 29010KT 9999 FEW027 BKN180 10/02 Q1019
OITP 191000Z 02004KT 9999 SCT030 SCT090 08/03 Q1019
OIIP 191000Z 32008KT 9999 FEW040 BKN200 02/M09 Q1015
OINR 191000Z 01004KT 9999 FEW025 BKN160 11/05 Q1019
OIGG 191000Z 00000KT 9999 FEW020 BKN170 09/04 Q1020
OITM 191000Z 32004KT 8000 BKN030TCU FEW033 M00/M05 Q1019
OICS 191000Z 18002KT 9999 FEW040 03/M08 Q1018
OIMC 191000Z 12006KT 9999 FEW035 SCT100 BKN190 08/01 Q1016
OINZ 191000Z 20008KT 9999 FEW030 OVC180 11/02 Q1019
OIIS 191000Z 15002KT 9999 FEW030 BKN200 04/M04 Q1016
OICC 191000Z 00000KT 8000 FEW035 M00/M05 Q1020 A3014 NOSIG
OIAI 191000Z 20002KT CAVOK 11/M01 Q1019
OIFS 191000Z 21004KT 9999 FEW040 01/M10 Q1016
OISS 191000Z 27008G19KT CAVOK 10/M20 Q1015 A2997
TAF OISS 190530Z 1906/2012 27008KT 8000 NSC 
     TEMPO 1907/1913 27020KT
       
OIBS 191000Z 27023KT 3000 DU SCT040 BKN100 20/10 Q1017
OITT 191000Z 25006KT 9999 FEW035 BKN180 M02/M08 Q1020 A3013 NOSIG
TAF OITT 190530Z 1906/2012 06006KT 7000 FEW040 
     TEMPO 1910/1914 27012KT
       
OIBJ 191000Z 32008KT 4000 DU NSC 13/01 Q1018
OITR 191000Z 15006KT 9999 FEW035 SCT180 02/M07 Q1018
TAF OITR 190530Z 1906/2012 28006KT 8000 NSC
       
OISY 191000Z 33006KT 6000 FEW035 05/M15 Q1016
OIYY 191000Z 32017G27KT 5000 SA FEW030CB SCT035 BKN090 05/M02 Q1017
OIZB 191000Z 11004KT 8000 NSC 22/M03 Q1008
OIZH 191000Z 24023KT 5000 SA NSC 18/M09 Q1011 A2988 TEMPO 24024G34KT 3000 SA
TAF OIZH 190530Z 1906/2012 22016KT 7000 NSC 
     TEMPO 1906/1918 22020G30KT 3000 SA 
     BECMG 1919/1921 32010KT 8000 NSC
       
OITZ 191000Z 04002KT 9999 FEW030 OVC170 M03/M12 Q1017